createdAt,value
2023-07-07T00:02:18.558Z,7.38
2023-07-07T00:05:21.103Z,8.73
2023-07-07T00:08:23.607Z,9.65
2023-07-07T00:11:25.952Z,6.72
2023-07-07T00:14:28.490Z,8.55
2023-07-07T00:17:30.879Z,8.40
2023-07-07T00:20:33.233Z,8.57
2023-07-07T00:23:39.210Z,9.05
2023-07-07T00:26:41.573Z,10.57
2023-07-07T00:29:43.988Z,7.70
2023-07-07T00:32:46.350Z,7.97
2023-07-07T00:35:49.313Z,6.57
2023-07-07T00:38:53.283Z,7.07
2023-07-07T00:41:55.660Z,9.02
2023-07-07T00:45:18.280Z,7.65
2023-07-07T00:48:22.601Z,9.90
2023-07-07T00:51:32.261Z,5.83
2023-07-07T00:54:34.645Z,9.25
2023-07-07T00:57:37.017Z,10.70
2023-07-07T01:00:40.092Z,10.45
2023-07-07T01:03:44.980Z,18.35
2023-07-07T01:06:52.302Z,13.50
2023-07-07T01:09:54.688Z,8.13
2023-07-07T01:12:57.087Z,6.63
2023-07-07T01:16:07.221Z,9.52
2023-07-07T01:19:20.892Z,12.00
2023-07-07T01:22:36.794Z,8.10
2023-07-07T01:26:03.793Z,7.90
2023-07-07T01:29:39.956Z,6.72
2023-07-07T01:32:42.389Z,10.65
2023-07-07T01:35:45.471Z,9.30
2023-07-07T01:38:47.963Z,11.20
2023-07-07T01:42:06.351Z,6.75
2023-07-07T01:45:14.100Z,6.97
2023-07-07T01:48:38.713Z,5.70
2023-07-07T01:52:01.018Z,6.75
2023-07-07T01:55:17.067Z,6.73
2023-07-07T01:58:19.646Z,8.30
2023-07-07T02:01:22.088Z,8.60
2023-07-07T02:04:24.686Z,8.45
2023-07-07T02:07:27.072Z,6.80
2023-07-07T02:10:29.474Z,7.67
2023-07-07T02:13:31.945Z,8.15
2023-07-07T02:16:34.430Z,7.80
2023-07-07T02:19:36.798Z,6.20
2023-07-07T02:22:39.637Z,7.90
2023-07-07T02:25:42.039Z,7.87
2023-07-07T02:28:44.385Z,8.93
2023-07-07T02:31:46.818Z,8.15
2023-07-07T02:34:49.348Z,7.85
2023-07-07T02:37:51.778Z,7.38
2023-07-07T02:40:55.454Z,8.97
2023-07-07T02:43:57.948Z,6.88
2023-07-07T02:47:00.349Z,10.20
2023-07-07T02:50:02.722Z,6.82
2023-07-07T02:53:05.066Z,9.40
2023-07-07T02:56:07.530Z,7.73
2023-07-07T02:59:09.930Z,9.73
2023-07-07T03:02:12.343Z,14.93
2023-07-07T03:05:14.807Z,7.38
2023-07-07T03:08:17.826Z,6.88
2023-07-07T03:11:22.555Z,10.30
2023-07-07T03:14:24.944Z,7.35
2023-07-07T03:17:31.690Z,6.88
2023-07-07T03:20:34.301Z,8.48
2023-07-07T03:23:37.269Z,6.15
2023-07-07T03:26:42.413Z,7.13
2023-07-07T03:29:45.903Z,7.68
2023-07-07T03:32:51.994Z,11.75
2023-07-07T03:35:55.391Z,7.53
2023-07-07T03:38:58.055Z,7.18
2023-07-07T03:42:00.670Z,7.57
2023-07-07T03:45:03.384Z,13.05
2023-07-07T03:48:07.815Z,9.10
2023-07-07T03:51:10.338Z,7.93
2023-07-07T03:54:13.069Z,9.10
2023-07-07T03:57:16.029Z,8.13
2023-07-07T04:00:18.417Z,7.15
2023-07-07T04:03:21.165Z,7.80
2023-07-07T04:06:23.726Z,7.70
2023-07-07T04:09:26.263Z,8.98
2023-07-07T04:12:32.892Z,7.43
2023-07-07T04:15:35.272Z,7.50
2023-07-07T04:18:37.842Z,10.98
2023-07-07T04:21:40.239Z,8.07
2023-07-07T04:24:42.677Z,6.50
2023-07-07T04:27:46.489Z,6.67
2023-07-07T04:30:53.151Z,6.15
2023-07-07T04:33:55.611Z,7.55
2023-07-07T04:36:58.002Z,9.02
2023-07-07T04:40:00.468Z,10.30
2023-07-07T04:43:02.844Z,9.57
2023-07-07T04:46:06.038Z,6.95
2023-07-07T04:49:08.919Z,9.15
2023-07-07T04:52:12.192Z,7.30
2023-07-07T04:55:14.637Z,8.23
2023-07-07T04:58:17.050Z,8.70
2023-07-07T05:01:21.584Z,6.65
2023-07-07T05:04:24.007Z,7.57
2023-07-07T05:07:27.355Z,7.18
2023-07-07T05:10:29.772Z,6.60
2023-07-07T05:13:33.083Z,8.43
2023-07-07T05:16:38.908Z,9.85
2023-07-07T05:19:41.531Z,8.85
2023-07-07T05:22:43.889Z,7.07
2023-07-07T05:25:46.649Z,6.90
2023-07-07T05:28:49.570Z,7.10
2023-07-07T05:31:51.988Z,6.95
2023-07-07T05:34:54.553Z,6.43
2023-07-07T05:37:56.976Z,6.82
2023-07-07T05:40:59.982Z,7.50
2023-07-07T05:44:02.667Z,12.07
2023-07-07T05:47:05.448Z,6.80
2023-07-07T05:50:08.863Z,6.10
2023-07-07T05:53:11.533Z,8.15
2023-07-07T05:56:22.109Z,5.78
2023-07-07T05:59:24.506Z,9.83
2023-07-07T06:02:26.938Z,7.75
2023-07-07T06:05:29.830Z,8.23
2023-07-07T06:08:32.459Z,5.35
2023-07-07T06:11:34.824Z,8.13
2023-07-07T06:14:37.205Z,6.00
2023-07-07T06:17:39.781Z,7.35
2023-07-07T06:20:42.963Z,7.25
2023-07-07T06:23:45.370Z,5.47
2023-07-07T06:26:47.813Z,5.28
2023-07-07T06:29:50.241Z,8.20
2023-07-07T06:32:52.663Z,7.55
2023-07-07T06:35:55.146Z,5.47
2023-07-07T06:38:57.530Z,8.90
2023-07-07T06:42:01.214Z,7.85
2023-07-07T06:45:09.596Z,7.43
2023-07-07T06:48:12.041Z,11.68
2023-07-07T06:51:14.541Z,20.90
2023-07-07T06:54:16.942Z,8.98
2023-07-07T06:57:19.343Z,14.68
2023-07-07T07:00:22.529Z,7.23
2023-07-07T07:03:24.853Z,8.27
2023-07-07T07:06:28.130Z,11.45
2023-07-07T07:09:30.580Z,8.82
2023-07-07T07:12:33.030Z,9.55
2023-07-07T07:15:35.478Z,9.10
2023-07-07T07:18:37.839Z,9.93
2023-07-07T07:21:40.200Z,10.88
2023-07-07T07:24:43.185Z,6.47
2023-07-07T07:27:45.589Z,6.90
2023-07-07T07:30:48.120Z,6.30
2023-07-07T07:33:52.642Z,9.23
2023-07-07T07:36:55.630Z,5.90
2023-07-07T07:39:57.963Z,6.72
2023-07-07T07:43:00.300Z,7.80
2023-07-07T07:46:02.727Z,5.50
2023-07-07T07:49:05.125Z,12.93
2023-07-07T07:52:07.911Z,5.95
2023-07-07T07:55:10.438Z,9.82
2023-07-07T07:58:13.089Z,10.70
2023-07-07T08:01:15.505Z,12.67
2023-07-07T08:04:17.949Z,8.18
2023-07-07T08:07:20.276Z,7.10
2023-07-07T08:10:22.623Z,8.43
2023-07-07T08:13:35.240Z,8.80
2023-07-07T08:16:42.348Z,7.33
2023-07-07T08:19:45.483Z,6.68
2023-07-07T08:22:47.933Z,6.85
2023-07-07T08:26:25.784Z,6.57
2023-07-07T08:32:22.719Z,5.00
2023-07-07T08:35:25.173Z,7.50
2023-07-07T08:38:27.539Z,6.93
2023-07-07T08:41:29.975Z,8.00
2023-07-07T08:44:34.146Z,6.10
2023-07-07T08:47:58.169Z,5.67
2023-07-07T08:51:03.046Z,7.97
2023-07-07T08:54:14.480Z,6.80
2023-07-07T08:57:18.635Z,8.95
2023-07-07T09:00:46.151Z,6.60
2023-07-07T09:03:51.665Z,7.27
2023-07-07T09:06:54.033Z,10.18
2023-07-07T09:10:28.255Z,8.32
2023-07-07T09:13:32.554Z,8.02
2023-07-07T09:16:36.283Z,7.53
2023-07-07T09:19:39.437Z,5.90
2023-07-07T09:22:55.628Z,6.47
2023-07-07T09:26:22.564Z,5.90
2023-07-07T09:29:27.664Z,6.93
2023-07-07T09:32:30.099Z,6.47
2023-07-07T09:35:36.383Z,6.73
2023-07-07T09:38:41.601Z,5.63
2023-07-07T09:42:01.960Z,6.18
2023-07-07T09:45:10.239Z,6.72
2023-07-07T09:48:18.580Z,7.18
2023-07-07T09:51:42.959Z,6.60
2023-07-07T09:54:45.368Z,12.45
2023-07-07T09:57:59.110Z,5.38
2023-07-07T10:01:03.289Z,7.70
2023-07-07T10:04:13.028Z,6.07
2023-07-07T10:07:15.825Z,6.83
2023-07-07T10:10:18.210Z,5.28
2023-07-07T10:13:20.922Z,6.55
2023-07-07T10:16:33.629Z,6.13
2023-07-07T10:20:02.059Z,6.38
2023-07-07T10:23:04.536Z,6.40
2023-07-07T10:26:06.899Z,4.75
2023-07-07T10:29:11.484Z,5.25
2023-07-07T10:32:18.161Z,5.68
2023-07-07T10:35:21.259Z,6.80
2023-07-07T10:38:24.378Z,5.70
2023-07-07T10:41:27.836Z,5.78
2023-07-07T10:44:30.232Z,8.38
2023-07-07T10:47:34.273Z,7.95
2023-07-07T10:50:37.995Z,6.28
2023-07-07T10:54:02.308Z,8.37
2023-07-07T10:57:27.633Z,8.45
2023-07-07T11:00:38.477Z,6.45
2023-07-07T11:03:49.497Z,5.68
2023-07-07T11:07:29.620Z,6.95
2023-07-07T11:10:50.383Z,5.07
2023-07-07T11:14:04.955Z,7.80
2023-07-07T11:17:29.737Z,7.80
2023-07-07T11:20:35.150Z,5.40
2023-07-07T11:23:56.689Z,5.25
2023-07-07T11:27:28.875Z,4.40
2023-07-07T11:30:37.628Z,5.07
2023-07-07T11:33:58.565Z,5.63
2023-07-07T11:37:11.376Z,6.63
2023-07-07T11:40:33.595Z,4.85
2023-07-07T11:44:14.241Z,5.73
2023-07-07T11:47:35.083Z,6.70
2023-07-07T11:50:41.506Z,8.77
2023-07-07T11:54:07.577Z,5.75
2023-07-07T11:57:12.949Z,6.75
2023-07-07T12:00:36.010Z,5.63
2023-07-07T12:03:43.877Z,6.47
2023-07-07T12:06:53.441Z,7.22
2023-07-07T12:10:01.612Z,6.40
2023-07-07T12:13:06.878Z,6.63
2023-07-07T12:16:14.849Z,9.63
2023-07-07T12:19:32.333Z,8.73
2023-07-07T12:22:36.560Z,5.68
2023-07-07T12:25:38.928Z,7.28
2023-07-07T12:28:43.920Z,6.53
2023-07-07T12:31:48.393Z,13.27
2023-07-07T12:35:17.716Z,10.32
2023-07-07T12:38:28.970Z,7.35
2023-07-07T12:41:31.414Z,8.75
2023-07-07T12:44:34.276Z,6.47
2023-07-07T12:47:42.704Z,6.13
2023-07-07T12:50:45.170Z,7.68
2023-07-07T12:53:54.927Z,12.45
2023-07-07T12:57:12.336Z,6.85
2023-07-07T13:00:45.577Z,5.85
2023-07-07T13:04:08.680Z,6.40
2023-07-07T13:07:20.246Z,7.68
2023-07-07T13:10:50.738Z,8.70
2023-07-07T13:13:53.098Z,17.73
2023-07-07T13:16:59.857Z,13.25
2023-07-07T13:20:03.259Z,10.33
2023-07-07T13:23:30.000Z,7.30
2023-07-07T13:26:32.430Z,12.68
2023-07-07T13:29:39.083Z,25.17
2023-07-07T13:32:42.722Z,14.10
2023-07-07T13:35:53.595Z,16.97
2023-07-07T13:38:56.045Z,18.48
2023-07-07T13:41:59.344Z,18.63
2023-07-07T13:45:09.129Z,15.13
2023-07-07T13:48:21.832Z,11.70
2023-07-07T13:51:29.678Z,7.27
2023-07-07T13:54:32.025Z,8.05
2023-07-07T13:57:34.690Z,6.57
2023-07-07T14:00:38.124Z,6.53
2023-07-07T14:03:40.538Z,7.55
2023-07-07T14:06:45.945Z,6.17
2023-07-07T14:09:49.620Z,6.82
2023-07-07T14:12:52.044Z,6.43
2023-07-07T14:15:58.109Z,5.50
2023-07-07T14:19:22.069Z,7.85
2023-07-07T14:22:24.504Z,9.43
2023-07-07T14:25:26.895Z,6.55
2023-07-07T14:28:36.856Z,8.82
2023-07-07T14:31:40.024Z,9.13
2023-07-07T14:34:47.625Z,8.07
2023-07-07T14:37:58.523Z,7.63
2023-07-07T14:41:12.440Z,6.10
2023-07-07T14:44:41.813Z,5.93
2023-07-07T14:47:44.295Z,9.07
2023-07-07T14:50:46.746Z,8.85
2023-07-07T14:54:02.098Z,5.70
2023-07-07T14:57:08.457Z,6.90
2023-07-07T15:00:28.128Z,9.82
2023-07-07T15:03:31.912Z,6.28
2023-07-07T15:06:35.852Z,7.25
2023-07-07T15:09:38.255Z,13.20
2023-07-07T15:12:40.622Z,9.90
2023-07-07T15:15:43.065Z,6.65
2023-07-07T15:18:45.792Z,8.50
2023-07-07T15:21:48.330Z,8.88
2023-07-07T15:24:52.144Z,7.73
2023-07-07T15:27:54.513Z,9.73
2023-07-07T15:30:56.854Z,9.25
2023-07-07T15:33:59.257Z,6.97
2023-07-07T15:37:01.617Z,7.03
2023-07-07T15:40:12.238Z,8.47
2023-07-07T15:43:14.614Z,7.75
2023-07-07T15:46:27.195Z,9.05
2023-07-07T15:49:29.564Z,6.88
2023-07-07T15:52:32.086Z,6.65
2023-07-07T15:55:34.616Z,12.17
2023-07-07T15:58:37.071Z,5.97
2023-07-07T16:01:39.457Z,7.95
2023-07-07T16:04:41.928Z,8.57
2023-07-07T16:07:44.370Z,7.07
2023-07-07T16:10:46.782Z,7.80
2023-07-07T16:13:53.109Z,8.07
2023-07-07T16:16:55.485Z,7.63
2023-07-07T16:20:01.971Z,15.02
2023-07-07T16:23:04.391Z,7.75
2023-07-07T16:26:12.517Z,11.03
2023-07-07T16:29:18.474Z,5.70
2023-07-07T16:32:20.802Z,9.57
2023-07-07T16:35:23.576Z,8.95
2023-07-07T16:38:25.918Z,8.38
2023-07-07T16:41:28.842Z,8.83
2023-07-07T16:44:31.175Z,47.08
2023-07-07T16:47:33.663Z,54.97
2023-07-07T16:50:36.085Z,56.05
2023-07-07T16:53:40.412Z,40.17
2023-07-07T16:56:43.538Z,26.50
2023-07-07T16:59:46.052Z,19.52
2023-07-07T17:02:48.724Z,12.00
2023-07-07T17:05:51.169Z,18.52
2023-07-07T17:08:55.799Z,26.52
2023-07-07T17:11:58.212Z,23.37
2023-07-07T17:15:02.865Z,23.25
2023-07-07T17:18:09.535Z,24.08
2023-07-07T17:21:12.028Z,36.75
2023-07-07T17:24:14.468Z,35.70
2023-07-07T17:27:16.836Z,53.57
2023-07-07T17:30:24.373Z,41.40
2023-07-07T17:33:27.065Z,24.30
2023-07-07T17:36:30.601Z,10.13
2023-07-07T17:39:33.210Z,14.35
2023-07-07T17:42:35.608Z,9.03
2023-07-07T17:45:37.975Z,7.70
2023-07-07T17:48:40.369Z,11.60
2023-07-07T17:51:42.936Z,9.23
2023-07-07T17:54:45.301Z,9.07
2023-07-07T17:57:47.856Z,7.67
2023-07-07T18:00:51.167Z,8.30
2023-07-07T18:03:53.724Z,9.65
2023-07-07T18:06:56.156Z,10.07
2023-07-07T18:09:58.554Z,8.88
2023-07-07T18:13:00.973Z,8.43
2023-07-07T18:16:03.375Z,10.88
2023-07-07T18:19:41.491Z,9.88
2023-07-07T18:22:32.208Z,10.30
2023-07-07T18:25:34.640Z,8.90
2023-07-07T18:28:37.001Z,8.00
2023-07-07T18:31:40.634Z,7.75
2023-07-07T18:34:45.268Z,10.23
2023-07-07T18:37:47.723Z,6.05
2023-07-07T18:40:50.396Z,11.70
2023-07-07T18:43:52.889Z,7.43
2023-07-07T18:46:55.340Z,7.15
2023-07-07T18:49:57.734Z,13.27
2023-07-07T18:53:00.255Z,7.65
2023-07-07T18:56:02.620Z,10.93
2023-07-07T18:59:18.284Z,9.80
2023-07-07T19:02:20.698Z,7.32
2023-07-07T19:05:23.101Z,7.35
2023-07-07T19:08:25.594Z,11.27
2023-07-07T19:11:27.959Z,8.82
2023-07-07T19:14:30.354Z,8.07
2023-07-07T19:17:32.760Z,8.32
2023-07-07T19:20:35.235Z,11.93
2023-07-07T19:23:37.597Z,11.05
2023-07-07T19:26:44.663Z,10.52
2023-07-07T19:29:47.086Z,15.43
2023-07-07T19:32:49.526Z,11.75
2023-07-07T19:35:56.052Z,11.90
2023-07-07T19:38:58.562Z,10.35
2023-07-07T19:42:00.922Z,10.95
2023-07-07T19:45:03.435Z,10.07
2023-07-07T19:48:23.833Z,7.53
2023-07-07T19:51:29.039Z,8.32
2023-07-07T19:54:31.526Z,8.35
2023-07-07T19:57:33.952Z,10.48
2023-07-07T20:00:36.308Z,8.23
2023-07-07T20:03:39.700Z,7.53
2023-07-07T20:06:44.651Z,7.70
2023-07-07T20:09:47.099Z,7.50
2023-07-07T20:12:50.222Z,6.72
2023-07-07T20:15:52.646Z,8.30
2023-07-07T20:18:56.140Z,7.22
2023-07-07T20:21:58.559Z,7.63
2023-07-07T20:25:00.944Z,12.27
2023-07-07T20:28:03.358Z,7.93
2023-07-07T20:31:05.787Z,6.93
2023-07-07T20:34:08.625Z,6.90
2023-07-07T20:37:12.743Z,7.72
2023-07-07T20:40:23.396Z,9.68
2023-07-07T20:43:25.748Z,9.95
2023-07-07T20:46:30.384Z,9.13
2023-07-07T20:49:32.872Z,8.40
2023-07-07T20:52:35.237Z,7.40
2023-07-07T20:55:37.688Z,9.70
2023-07-07T20:58:40.244Z,8.35
2023-07-07T21:01:42.668Z,8.10
2023-07-07T21:04:45.047Z,10.88
2023-07-07T21:07:47.448Z,8.85
2023-07-07T21:10:49.976Z,8.75
2023-07-07T21:13:52.435Z,8.60
2023-07-07T21:16:54.796Z,7.93
2023-07-07T21:19:57.200Z,6.70
2023-07-07T21:23:07.488Z,8.00
2023-07-07T21:26:21.966Z,6.20
2023-07-07T21:29:24.352Z,6.68
2023-07-07T21:32:26.781Z,8.67
2023-07-07T21:35:29.360Z,8.25
2023-07-07T21:38:31.765Z,11.50
2023-07-07T21:41:42.478Z,6.00
2023-07-07T21:44:47.227Z,8.63
2023-07-07T21:47:57.319Z,8.13
2023-07-07T21:51:00.038Z,7.32
2023-07-07T21:54:02.640Z,8.05
2023-07-07T21:57:06.242Z,5.82
2023-07-07T22:00:28.353Z,8.23
2023-07-07T22:03:30.775Z,10.83
2023-07-07T22:06:33.117Z,8.30
2023-07-07T22:09:35.493Z,9.48
2023-07-07T22:12:37.818Z,9.00
2023-07-07T22:15:40.336Z,12.52
2023-07-07T22:18:54.170Z,10.87
2023-07-07T22:21:58.186Z,11.25
2023-07-07T22:25:00.565Z,11.48
2023-07-07T22:28:03.627Z,8.65
2023-07-07T22:31:07.708Z,10.85
2023-07-07T22:34:10.178Z,8.60
2023-07-07T22:37:13.590Z,7.25
2023-07-07T22:40:22.549Z,7.47
2023-07-07T22:43:25.400Z,8.05
2023-07-07T22:46:29.965Z,9.43
2023-07-07T22:49:32.397Z,13.43
2023-07-07T22:52:34.788Z,8.90
2023-07-07T22:55:38.424Z,8.93
2023-07-07T22:58:40.800Z,10.32
2023-07-07T23:01:43.231Z,8.40
2023-07-07T23:04:45.628Z,8.80
2023-07-07T23:07:48.049Z,8.05
2023-07-07T23:10:52.037Z,7.47
2023-07-07T23:13:54.485Z,11.55
2023-07-07T23:16:57.382Z,7.45
2023-07-07T23:20:00.723Z,8.63
2023-07-07T23:23:05.270Z,9.45
2023-07-07T23:26:20.624Z,12.00
2023-07-07T23:29:23.271Z,8.13
2023-07-07T23:32:25.618Z,8.65
2023-07-07T23:35:27.989Z,9.57
2023-07-07T23:38:30.364Z,8.70
2023-07-07T23:41:32.801Z,8.90
2023-07-07T23:44:35.174Z,9.00
2023-07-07T23:47:38.750Z,7.95
2023-07-07T23:51:01.822Z,8.93
2023-07-07T23:54:04.560Z,7.47
2023-07-07T23:57:13.448Z,7.53
